Terminal Aerodrome Forecast
Issued by NWS Sterling, VA

Home | Current Version | Previous Version | Text Only | Print | Product List | Glossary On
Versions: 1 2 3 4 5 6 7 8 9 10 11 12 13 14 15 16 17 18 19 20 21 22 23 24 25 26 27 28 29 30 31 32 33 34 35 36 37 38 39 40 41 42 43 44 45
000
FTUS41 KLWX 231724
TAFBWI
TAF
KBWI 231724Z 2318/2424 30016G26KT P6SM SKC
     FM232200 30013KT P6SM SKC
     FM240000 30009KT P6SM SKC
     FM240500 29005KT P6SM SKC
     FM241600 23007KT P6SM SCT150=

USA.gov is the U.S. government's official web portal to all federal, state and local government web resources and services.